createdAt,value
2022-11-20T00:00:20.289Z,7.20
2022-11-20T00:02:47.048Z,7.97
2022-11-20T00:05:13.809Z,7.63
2022-11-20T00:07:40.577Z,7.43
2022-11-20T00:10:07.753Z,6.97
2022-11-20T00:12:37.225Z,7.90
2022-11-20T00:15:04.861Z,7.28
2022-11-20T00:17:31.885Z,7.40
2022-11-20T00:19:58.770Z,7.40
2022-11-20T00:22:25.508Z,7.35
2022-11-20T00:24:53.988Z,6.30
2022-11-20T00:27:20.707Z,7.60
2022-11-20T00:29:47.779Z,6.70
2022-11-20T00:32:14.662Z,7.32
2022-11-20T00:34:41.506Z,6.57
2022-11-20T00:37:08.610Z,7.65
2022-11-20T00:39:35.910Z,7.10
2022-11-20T00:42:02.773Z,7.53
2022-11-20T00:44:29.598Z,7.72
2022-11-20T00:46:56.530Z,7.00
2022-11-20T00:49:23.609Z,7.32
2022-11-20T00:51:50.739Z,8.20
2022-11-20T00:54:17.690Z,7.40
2022-11-20T00:56:44.441Z,7.53
2022-11-20T00:59:12.482Z,7.65
2022-11-20T01:01:39.863Z,6.60
2022-11-20T01:04:06.675Z,7.72
2022-11-20T01:06:38.643Z,7.43
2022-11-20T01:09:08.865Z,7.93
2022-11-20T01:11:38.305Z,7.80
2022-11-20T01:14:07.266Z,7.20
2022-11-20T01:16:36.684Z,8.63
2022-11-20T01:19:05.929Z,7.35
2022-11-20T01:21:35.985Z,7.88
2022-11-20T01:24:04.178Z,8.13
2022-11-20T01:26:36.433Z,8.48
2022-11-20T01:29:06.233Z,7.97
2022-11-20T01:31:35.465Z,8.38
2022-11-20T01:34:05.983Z,8.15
2022-11-20T01:36:34.142Z,8.57
2022-11-20T01:39:03.121Z,8.85
2022-11-20T01:41:50.355Z,8.38
2022-11-20T01:44:20.205Z,8.50
2022-11-20T01:46:59.904Z,7.78
2022-11-20T01:49:39.539Z,9.05
2022-11-20T01:52:10.348Z,8.15
2022-11-20T01:54:47.166Z,8.38
2022-11-20T01:57:15.040Z,8.50
2022-11-20T01:59:45.862Z,8.23
2022-11-20T02:02:12.727Z,8.43
2022-11-20T02:04:39.744Z,8.52
2022-11-20T02:07:06.744Z,9.13
2022-11-20T02:09:33.567Z,8.73
2022-11-20T02:12:00.606Z,8.43
2022-11-20T02:14:28.047Z,9.00
2022-11-20T02:16:55.851Z,8.55
2022-11-20T02:19:29.297Z,9.70
2022-11-20T02:22:20.931Z,8.85
2022-11-20T02:24:49.440Z,8.52
2022-11-20T02:27:17.474Z,9.23
2022-11-20T02:29:57.121Z,8.85
2022-11-20T02:32:29.902Z,9.05
2022-11-20T02:34:56.742Z,9.32
2022-11-20T02:37:24.007Z,8.95
2022-11-20T02:39:52.985Z,9.13
2022-11-20T02:42:20.242Z,8.77
2022-11-20T02:44:46.978Z,9.43
2022-11-20T02:47:13.637Z,8.88
2022-11-20T02:49:40.411Z,8.57
2022-11-20T02:52:07.193Z,8.10
2022-11-20T02:54:34.274Z,10.07
2022-11-20T02:57:01.344Z,9.73
2022-11-20T02:59:28.101Z,9.23
2022-11-20T03:01:54.882Z,8.63
2022-11-20T03:04:21.619Z,9.23
2022-11-20T03:06:48.438Z,8.25
2022-11-20T03:09:15.230Z,9.27
2022-11-20T03:11:42.024Z,9.27
2022-11-20T03:14:08.729Z,11.00
2022-11-20T03:16:35.738Z,9.45
2022-11-20T03:19:02.684Z,8.82
2022-11-20T03:21:33.749Z,9.88
2022-11-20T03:24:00.659Z,9.45
2022-11-20T03:26:28.471Z,9.70
2022-11-20T03:28:57.443Z,8.77
2022-11-20T03:31:26.718Z,9.45
2022-11-20T03:33:53.530Z,9.27
2022-11-20T03:36:21.323Z,9.63
2022-11-20T03:38:48.539Z,10.27
2022-11-20T03:41:18.982Z,8.93
2022-11-20T03:43:53.379Z,8.82
2022-11-20T03:46:20.242Z,10.30
2022-11-20T03:48:51.369Z,10.35
2022-11-20T03:51:25.863Z,11.20
2022-11-20T03:53:53.997Z,9.82
2022-11-20T03:56:24.817Z,9.95
2022-11-20T03:58:52.263Z,10.15
2022-11-20T04:01:22.832Z,9.77
2022-11-20T04:03:50.400Z,9.82
2022-11-20T04:06:22.241Z,9.50
2022-11-20T04:08:53.541Z,9.95
2022-11-20T04:11:23.694Z,9.65
2022-11-20T04:13:52.298Z,9.75
2022-11-20T04:16:19.699Z,9.55
2022-11-20T04:18:46.743Z,10.75
2022-11-20T04:21:13.845Z,9.93
2022-11-20T04:23:40.525Z,9.63
2022-11-20T04:26:10.348Z,10.57
2022-11-20T04:28:37.566Z,10.55
2022-11-20T04:31:05.041Z,10.68
2022-11-20T04:33:34.193Z,9.60
2022-11-20T04:36:06.347Z,9.35
2022-11-20T04:38:33.017Z,9.13
2022-11-20T04:41:01.292Z,9.85
2022-11-20T04:43:28.223Z,9.10
2022-11-20T04:45:56.073Z,9.20
2022-11-20T04:48:23.418Z,9.98
2022-11-20T04:50:50.303Z,9.43
2022-11-20T04:53:17.207Z,10.05
2022-11-20T04:55:43.885Z,10.70
2022-11-20T04:58:10.794Z,10.32
2022-11-20T05:00:37.834Z,9.95
2022-11-20T05:03:05.060Z,10.57
2022-11-20T05:05:32.033Z,9.13
2022-11-20T05:07:59.241Z,10.02
2022-11-20T05:10:29.819Z,9.00
2022-11-20T05:12:56.480Z,10.15
2022-11-20T05:15:23.241Z,10.40
2022-11-20T05:17:50.778Z,10.18
2022-11-20T05:20:18.302Z,9.82
2022-11-20T05:22:45.392Z,10.40
2022-11-20T05:25:12.969Z,9.73
2022-11-20T05:27:40.002Z,9.85
2022-11-20T05:30:07.684Z,10.32
2022-11-20T05:32:34.431Z,9.70
2022-11-20T05:35:01.066Z,9.90
2022-11-20T05:37:27.809Z,9.52
2022-11-20T05:39:54.522Z,10.13
2022-11-20T05:42:33.307Z,9.90
2022-11-20T05:45:00.746Z,9.88
2022-11-20T05:47:33.697Z,9.32
2022-11-20T05:50:00.445Z,9.45
2022-11-20T05:52:30.306Z,9.25
2022-11-20T05:54:57.299Z,9.57
2022-11-20T05:57:24.027Z,9.55
2022-11-20T05:59:50.831Z,9.20
2022-11-20T06:02:17.819Z,9.85
2022-11-20T06:04:44.573Z,10.98
2022-11-20T06:07:11.448Z,9.43
2022-11-20T06:09:38.331Z,9.15
2022-11-20T06:12:05.346Z,9.73
2022-11-20T06:14:32.080Z,9.45
2022-11-20T06:16:58.901Z,10.40
2022-11-20T06:22:07.413Z,9.32
2022-11-20T06:24:33.898Z,9.90
2022-11-20T06:27:00.406Z,9.55
2022-11-20T06:29:32.606Z,10.48
2022-11-20T06:32:00.370Z,10.18
2022-11-20T06:34:26.983Z,9.68
2022-11-20T06:36:53.554Z,8.90
2022-11-20T06:39:20.678Z,9.85
2022-11-20T06:41:47.865Z,8.98
2022-11-20T06:44:14.402Z,10.57
2022-11-20T06:46:40.940Z,9.25
2022-11-20T06:49:07.555Z,10.15
2022-11-20T06:51:34.140Z,9.95
2022-11-20T06:54:04.253Z,9.40
2022-11-20T06:56:30.770Z,9.90
2022-11-20T06:58:57.325Z,9.88
2022-11-20T07:01:23.874Z,9.57
2022-11-20T07:03:54.365Z,9.50
2022-11-20T07:06:21.390Z,9.23
2022-11-20T07:08:48.167Z,8.48
2022-11-20T07:11:15.011Z,9.95
2022-11-20T07:13:41.560Z,9.65
2022-11-20T07:16:09.100Z,9.70
2022-11-20T07:18:36.700Z,9.27
2022-11-20T07:21:05.004Z,9.95
2022-11-20T07:23:31.804Z,10.35
2022-11-20T07:25:58.331Z,10.50
2022-11-20T07:28:24.863Z,10.35
2022-11-20T07:30:52.706Z,9.93
2022-11-20T07:33:19.608Z,10.80
2022-11-20T07:35:46.676Z,10.32
2022-11-20T07:38:13.273Z,11.00
2022-11-20T07:40:39.949Z,9.73
2022-11-20T07:43:06.549Z,10.05
2022-11-20T07:45:33.226Z,10.05
2022-11-20T07:48:03.429Z,10.05
2022-11-20T07:50:30.319Z,9.65
2022-11-20T07:53:05.037Z,11.27
2022-11-20T07:55:31.962Z,9.82
2022-11-20T07:57:58.626Z,10.25
2022-11-20T08:00:26.597Z,10.20
2022-11-20T08:02:53.550Z,11.00
2022-11-20T08:05:20.125Z,11.30
2022-11-20T08:07:46.972Z,11.32
2022-11-20T08:10:15.174Z,11.45
2022-11-20T08:13:18.472Z,10.60
2022-11-20T08:15:49.734Z,9.77
2022-11-20T08:18:30.656Z,10.75
2022-11-20T08:20:58.048Z,10.50
2022-11-20T08:23:24.796Z,10.57
2022-11-20T08:25:52.116Z,10.52
2022-11-20T08:28:21.894Z,11.40
2022-11-20T08:30:49.849Z,10.80
2022-11-20T08:33:16.426Z,10.20
2022-11-20T08:35:44.003Z,9.50
2022-11-20T08:38:10.599Z,11.48
2022-11-20T08:40:37.168Z,9.82
2022-11-20T08:43:03.771Z,10.50
2022-11-20T08:45:34.203Z,10.48
2022-11-20T08:48:05.225Z,10.73
2022-11-20T08:50:35.194Z,10.55
2022-11-20T08:53:05.566Z,10.15
2022-11-20T08:55:32.211Z,10.23
2022-11-20T08:57:58.816Z,11.20
2022-11-20T09:00:25.347Z,10.90
2022-11-20T09:02:52.932Z,11.55
2022-11-20T09:05:19.443Z,10.82
2022-11-20T09:07:46.463Z,11.40
2022-11-20T09:10:28.428Z,11.57
2022-11-20T09:12:56.318Z,10.23
2022-11-20T09:15:23.911Z,10.73
2022-11-20T09:18:04.392Z,11.55
2022-11-20T09:20:31.494Z,10.98
2022-11-20T09:22:58.676Z,10.20
2022-11-20T09:25:25.560Z,10.27
2022-11-20T09:27:59.461Z,10.80
2022-11-20T09:30:26.820Z,10.02
2022-11-20T09:32:53.464Z,10.57
2022-11-20T09:35:20.085Z,10.13
2022-11-20T09:37:46.799Z,10.57
2022-11-20T09:40:24.676Z,12.05
2022-11-20T09:43:23.385Z,10.68
2022-11-20T09:46:15.851Z,10.32
2022-11-20T09:48:54.274Z,9.88
2022-11-20T09:51:35.571Z,10.30
2022-11-20T09:54:19.090Z,9.93
2022-11-20T09:56:56.371Z,9.20
2022-11-20T09:59:41.568Z,10.65
2022-11-20T10:02:28.021Z,9.48
2022-11-20T10:05:00.706Z,9.23
2022-11-20T10:08:01.118Z,10.85
2022-11-20T10:10:38.486Z,10.20
2022-11-20T10:13:22.644Z,9.90
2022-11-20T10:16:02.572Z,10.15
2022-11-20T10:19:06.430Z,9.60
2022-11-20T10:21:55.422Z,9.82
2022-11-20T10:24:30.665Z,9.25
2022-11-20T10:27:21.694Z,10.30
2022-11-20T10:30:00.855Z,10.70
2022-11-20T10:32:35.153Z,9.57
2022-11-20T10:35:22.542Z,9.27
2022-11-20T10:37:57.676Z,10.07
2022-11-20T10:40:27.317Z,9.73
2022-11-20T10:43:22.555Z,9.98
2022-11-20T10:46:10.037Z,10.02
2022-11-20T10:48:37.502Z,9.73
2022-11-20T10:51:09.873Z,9.60
2022-11-20T10:53:48.656Z,10.15
2022-11-20T10:56:33.706Z,8.80
2022-11-20T10:59:15.552Z,9.00
2022-11-20T11:01:43.198Z,8.75
2022-11-20T11:04:31.332Z,8.70
2022-11-20T11:07:12.380Z,9.20
2022-11-20T11:09:56.156Z,9.65
2022-11-20T11:12:25.742Z,8.55
2022-11-20T11:14:59.029Z,8.10
2022-11-20T11:17:33.995Z,8.45
2022-11-20T11:20:08.188Z,7.80
2022-11-20T11:22:46.022Z,9.02
2022-11-20T11:25:24.867Z,8.38
2022-11-20T11:27:52.411Z,7.28
2022-11-20T11:30:20.989Z,8.02
2022-11-20T11:32:47.974Z,7.70
2022-11-20T11:35:23.165Z,7.75
2022-11-20T11:37:50.199Z,8.40
2022-11-20T11:40:25.421Z,7.95
2022-11-20T11:42:58.859Z,8.18
2022-11-20T11:45:25.695Z,6.95
2022-11-20T11:47:53.957Z,7.40
2022-11-20T11:50:28.581Z,7.93
2022-11-20T11:53:05.253Z,7.32
2022-11-20T11:55:43.684Z,7.63
2022-11-20T11:58:47.170Z,7.60
2022-11-20T12:01:19.434Z,7.47
2022-11-20T12:04:02.807Z,7.90
2022-11-20T12:06:32.619Z,7.80
2022-11-20T12:09:09.974Z,9.05
2022-11-20T12:11:47.359Z,7.82
2022-11-20T12:14:25.090Z,7.30
2022-11-20T12:16:53.854Z,7.20
2022-11-20T12:19:20.857Z,7.50
2022-11-20T12:22:01.512Z,8.18
2022-11-20T12:24:35.503Z,6.32
2022-11-20T12:27:39.384Z,7.60
2022-11-20T12:30:09.832Z,6.82
2022-11-20T12:32:55.354Z,7.38
2022-11-20T12:35:46.828Z,6.55
2022-11-20T12:38:21.915Z,6.60
2022-11-20T12:41:35.889Z,6.45
2022-11-20T12:44:40.932Z,6.20
2022-11-20T12:47:27.157Z,6.30
2022-11-20T12:50:32.534Z,6.03
2022-11-20T12:53:10.651Z,6.18
2022-11-20T12:55:48.741Z,5.25
2022-11-20T12:58:18.085Z,6.00
2022-11-20T13:00:56.016Z,6.65
2022-11-20T13:03:38.132Z,7.13
2022-11-20T13:06:17.941Z,6.65
2022-11-20T13:08:50.532Z,6.25
2022-11-20T13:11:34.465Z,6.75
2022-11-20T13:14:35.404Z,6.68
2022-11-20T13:17:14.191Z,6.78
2022-11-20T13:19:41.072Z,6.95
2022-11-20T13:22:10.007Z,6.88
2022-11-20T13:24:36.707Z,6.90
2022-11-20T13:27:26.639Z,6.85
2022-11-20T13:30:15.561Z,8.00
2022-11-20T13:32:57.124Z,7.85
2022-11-20T13:35:34.041Z,6.95
2022-11-20T13:38:11.919Z,6.90
2022-11-20T13:40:58.798Z,5.82
2022-11-20T13:43:43.091Z,6.63
2022-11-20T13:46:11.294Z,6.50
2022-11-20T13:48:43.146Z,7.00
2022-11-20T13:51:36.854Z,6.45
2022-11-20T13:54:13.557Z,6.10
2022-11-20T13:56:58.326Z,5.70
2022-11-20T14:00:16.037Z,6.00
2022-11-20T14:02:43.207Z,6.28
2022-11-20T14:05:20.219Z,6.20
2022-11-20T14:07:46.943Z,6.43
2022-11-20T14:10:31.743Z,6.55
2022-11-20T14:13:00.118Z,5.82
2022-11-20T14:15:29.815Z,6.38
2022-11-20T14:17:56.946Z,6.03
2022-11-20T14:20:28.997Z,5.85
2022-11-20T14:22:56.064Z,6.38
2022-11-20T14:25:27.910Z,6.00
2022-11-20T14:27:56.289Z,6.47
2022-11-20T14:30:45.692Z,6.07
2022-11-20T14:33:13.551Z,6.10
2022-11-20T14:35:51.353Z,7.68
2022-11-20T14:38:29.188Z,6.22
2022-11-20T14:40:55.827Z,7.25
2022-11-20T14:43:28.130Z,7.68
2022-11-20T14:46:00.013Z,6.57
2022-11-20T14:48:47.826Z,6.15
2022-11-20T14:51:33.127Z,7.03
2022-11-20T14:54:13.186Z,6.95
2022-11-20T14:56:39.798Z,7.28
2022-11-20T14:59:06.856Z,8.07
2022-11-20T15:01:34.261Z,6.47
2022-11-20T15:04:13.157Z,6.88
2022-11-20T15:06:51.428Z,6.22
2022-11-20T15:09:18.044Z,6.10
2022-11-20T15:11:56.384Z,7.28
2022-11-20T15:14:24.597Z,6.35
2022-11-20T15:16:51.941Z,6.40
2022-11-20T15:19:20.831Z,6.28
2022-11-20T15:21:47.532Z,7.50
2022-11-20T15:24:14.247Z,6.80
2022-11-20T15:26:41.428Z,7.38
2022-11-20T15:29:21.949Z,6.82
2022-11-20T15:31:48.494Z,7.18
2022-11-20T15:34:16.400Z,8.15
2022-11-20T15:36:43.785Z,7.80
2022-11-20T15:39:10.490Z,7.22
2022-11-20T15:41:37.239Z,6.45
2022-11-20T15:44:05.311Z,7.40
2022-11-20T15:46:39.261Z,7.80
2022-11-20T15:49:06.972Z,7.03
2022-11-20T15:51:38.743Z,7.55
2022-11-20T15:54:15.360Z,7.60
2022-11-20T15:56:41.907Z,8.13
2022-11-20T15:59:08.495Z,7.40
2022-11-20T16:01:35.189Z,8.30
2022-11-20T16:04:02.303Z,7.97
2022-11-20T16:06:28.912Z,7.63
2022-11-20T16:08:55.649Z,7.80
2022-11-20T16:11:22.305Z,7.57
2022-11-20T16:14:07.626Z,7.18
2022-11-20T16:16:36.558Z,6.38
2022-11-20T16:19:03.392Z,7.97
2022-11-20T16:21:33.524Z,6.40
2022-11-20T16:24:01.502Z,8.20
2022-11-20T16:26:28.427Z,6.80
2022-11-20T16:28:55.750Z,8.27
2022-11-20T16:31:22.722Z,7.47
2022-11-20T16:33:53.781Z,6.95
2022-11-20T16:36:22.413Z,6.72
2022-11-20T16:38:53.700Z,8.18
2022-11-20T16:41:20.568Z,7.60
2022-11-20T16:43:47.966Z,6.90
2022-11-20T16:46:22.588Z,7.45
2022-11-20T16:48:59.405Z,7.25
2022-11-20T16:51:28.937Z,7.18
2022-11-20T16:53:58.426Z,7.53
2022-11-20T16:56:26.689Z,6.43
2022-11-20T16:58:55.991Z,6.70
2022-11-20T17:01:24.025Z,5.78
2022-11-20T17:03:59.091Z,6.65
2022-11-20T17:06:28.188Z,6.10
2022-11-20T17:08:56.062Z,7.90
2022-11-20T17:11:23.214Z,7.20
2022-11-20T17:13:49.965Z,6.57
2022-11-20T17:16:19.356Z,7.55
2022-11-20T17:18:46.902Z,6.95
2022-11-20T17:21:13.649Z,7.00
2022-11-20T17:23:42.022Z,6.70
2022-11-20T17:26:28.353Z,6.07
2022-11-20T17:29:01.844Z,7.93
2022-11-20T17:31:29.752Z,6.82
2022-11-20T17:33:56.394Z,6.80
2022-11-20T17:36:23.065Z,6.82
2022-11-20T17:38:49.679Z,7.82
2022-11-20T17:41:18.518Z,9.00
2022-11-20T17:43:45.760Z,7.45
2022-11-20T17:46:16.689Z,8.00
2022-11-20T17:48:44.550Z,7.20
2022-11-20T17:51:15.593Z,8.65
2022-11-20T17:53:44.587Z,7.28
2022-11-20T17:56:30.096Z,7.25
2022-11-20T17:58:57.010Z,7.03
2022-11-20T18:01:24.257Z,7.20
2022-11-20T18:03:51.173Z,7.05
2022-11-20T18:06:20.299Z,7.63
2022-11-20T18:08:47.279Z,8.35
2022-11-20T18:11:15.179Z,8.30
2022-11-20T18:14:02.035Z,7.88
2022-11-20T18:16:30.205Z,7.72
2022-11-20T18:18:58.280Z,8.05
2022-11-20T18:21:26.447Z,8.20
2022-11-20T18:23:53.090Z,8.13
2022-11-20T18:26:19.827Z,7.72
2022-11-20T18:28:46.873Z,7.72
2022-11-20T18:31:14.141Z,6.95
2022-11-20T18:33:40.992Z,7.05
2022-11-20T18:36:15.698Z,7.72
2022-11-20T18:38:44.901Z,7.93
2022-11-20T18:41:36.550Z,7.38
2022-11-20T18:44:23.687Z,7.25
2022-11-20T18:46:50.943Z,7.10
2022-11-20T18:49:17.631Z,7.25
2022-11-20T18:51:44.557Z,7.55
2022-11-20T18:54:12.247Z,7.20
2022-11-20T18:56:39.499Z,8.05
2022-11-20T18:59:08.287Z,9.23
2022-11-20T19:01:38.089Z,9.90
2022-11-20T19:04:09.943Z,8.07
2022-11-20T19:06:37.606Z,8.20
2022-11-20T19:09:11.729Z,8.75
2022-11-20T19:11:39.597Z,7.82
2022-11-20T19:14:06.662Z,8.35
2022-11-20T19:16:33.875Z,7.22
2022-11-20T19:19:03.401Z,7.78
2022-11-20T19:21:30.547Z,7.57
2022-11-20T19:23:58.743Z,7.25
2022-11-20T19:26:26.192Z,7.30
2022-11-20T19:28:53.258Z,7.35
2022-11-20T19:31:27.381Z,8.13
2022-11-20T19:34:02.086Z,7.35
2022-11-20T19:36:30.220Z,7.43
2022-11-20T19:38:57.050Z,8.00
2022-11-20T19:41:29.190Z,8.50
2022-11-20T19:44:00.494Z,7.95
2022-11-20T19:46:28.417Z,7.88
2022-11-20T19:48:56.151Z,8.02
2022-11-20T19:51:30.994Z,8.52
2022-11-20T19:53:59.198Z,7.75
2022-11-20T19:56:27.363Z,7.80
2022-11-20T19:58:54.786Z,7.80
2022-11-20T20:01:24.007Z,7.78
2022-11-20T20:03:51.451Z,8.60
2022-11-20T20:06:23.261Z,7.25
2022-11-20T20:09:07.210Z,7.93
2022-11-20T20:11:34.970Z,7.68
2022-11-20T20:14:06.348Z,6.47
2022-11-20T20:16:34.417Z,6.35
2022-11-20T20:19:02.561Z,7.88
2022-11-20T20:21:30.652Z,7.60
2022-11-20T20:23:58.130Z,8.07
2022-11-20T20:26:26.124Z,9.20
2022-11-20T20:28:52.721Z,7.93
2022-11-20T20:31:22.407Z,7.90
2022-11-20T20:33:49.148Z,7.68
2022-11-20T20:36:17.143Z,7.38
2022-11-20T20:38:44.677Z,7.32
2022-11-20T20:41:11.298Z,8.10
2022-11-20T20:43:56.454Z,8.10
2022-11-20T20:46:23.823Z,7.22
2022-11-20T20:48:54.413Z,7.18
2022-11-20T20:51:21.962Z,7.97
2022-11-20T20:53:48.521Z,8.50
2022-11-20T20:56:15.153Z,7.30
2022-11-20T20:58:41.743Z,8.25
2022-11-20T21:01:14.618Z,7.82
2022-11-20T21:03:41.595Z,7.53
2022-11-20T21:06:12.821Z,7.70
2022-11-20T21:08:41.153Z,8.00
2022-11-20T21:11:11.723Z,8.85
2022-11-20T21:13:39.757Z,8.30
2022-11-20T21:16:07.123Z,8.55
2022-11-20T21:18:33.936Z,7.85
2022-11-20T21:21:19.927Z,8.07
2022-11-20T21:23:47.778Z,8.45
2022-11-20T21:26:15.974Z,8.93
2022-11-20T21:28:42.976Z,8.50
2022-11-20T21:31:09.482Z,9.10
2022-11-20T21:33:41.260Z,9.02
2022-11-20T21:36:09.310Z,8.63
2022-11-20T21:38:36.243Z,8.57
2022-11-20T21:41:07.462Z,8.07
2022-11-20T21:43:34.217Z,8.75
2022-11-20T21:46:06.238Z,8.48
2022-11-20T21:48:34.075Z,8.13
2022-11-20T21:51:10.062Z,7.97
2022-11-20T21:53:36.796Z,8.18
2022-11-20T21:56:07.021Z,7.78
2022-11-20T21:58:34.933Z,7.50
2022-11-20T22:01:14.727Z,7.95
2022-11-20T22:03:41.678Z,7.97
2022-11-20T22:06:09.883Z,7.70
2022-11-20T22:08:37.582Z,9.23
2022-11-20T22:11:14.832Z,8.30
2022-11-20T22:13:59.975Z,9.25
2022-11-20T22:16:26.976Z,8.85
2022-11-20T22:18:55.719Z,9.52
2022-11-20T22:21:24.807Z,8.93
2022-11-20T22:23:51.826Z,9.30
2022-11-20T22:26:23.507Z,9.07
2022-11-20T22:28:51.680Z,9.27
2022-11-20T22:31:19.299Z,9.88
2022-11-20T22:33:45.874Z,9.50
2022-11-20T22:36:18.036Z,9.48
2022-11-20T22:38:44.779Z,8.98
2022-11-20T22:41:27.218Z,9.00
2022-11-20T22:43:56.690Z,9.63
2022-11-20T22:46:23.808Z,9.18
2022-11-20T22:48:58.368Z,8.73
2022-11-20T22:51:27.048Z,10.05
2022-11-20T22:53:54.141Z,10.50
2022-11-20T22:56:21.254Z,10.45
2022-11-20T22:58:49.741Z,10.48
2022-11-20T23:01:18.632Z,11.18
2022-11-20T23:03:47.252Z,10.43
2022-11-20T23:06:15.167Z,10.32
2022-11-20T23:08:42.509Z,10.45
2022-11-20T23:11:12.209Z,10.43
2022-11-20T23:13:39.526Z,10.07
2022-11-20T23:16:10.638Z,10.15
2022-11-20T23:18:37.609Z,9.18
2022-11-20T23:21:12.688Z,10.32
2022-11-20T23:23:39.653Z,10.23
2022-11-20T23:26:08.587Z,10.70
2022-11-20T23:28:35.186Z,10.98
2022-11-20T23:31:02.720Z,10.48
2022-11-20T23:33:29.464Z,10.23
2022-11-20T23:35:56.191Z,10.63
2022-11-20T23:38:22.971Z,11.60
2022-11-20T23:40:50.898Z,11.82
2022-11-20T23:43:18.299Z,11.95
2022-11-20T23:45:47.264Z,12.48
2022-11-20T23:48:14.332Z,11.20
2022-11-20T23:50:42.231Z,10.38
2022-11-20T23:53:09.081Z,11.40
2022-11-20T23:55:35.864Z,11.95
2022-11-20T23:58:03.478Z,11.65
